Details for EasyJet Switzerland at LFSB




Go Back


Latest METAR
Local Time

LFSB 212330Z AUTO 35016KT 9999 FEW056 15/04 Q1023 TEMPO 36012G22KT

22/06/2018, 01:38:38

Description
Results
EasyJet Switzerland Logo
Number of Pilots based at LFSB
0 Pilots Based here
Number of EasyJet Switzerland Flights Departed from LFSB
0 Flights Departed
Number of EasyJet Switzerland Flights Arrived at LFSB
0 Flights Arrived
Number of EasyJet Switzerland Schedules Departing from LFSB
117 Schedules
Number of EasyJet Switzerland Schedules Arriving at LFSB
115 Schedules
Number of EasyJet Switzerland Schedules Departing from LFSB availible today
34 Schedules Today
Number of EasyJet Switzerland Schedules Arriving at LFSB availible today
34 Schedules Today
Average Landing Rate at LFSB
-169 fpm
EasyJet Switzerland Average Landing Rate at LFSB
0 fpm
Total Fuel Purchased at LFSB by EasyJet Switzerland
0.00 kgs / 0.00 lbs

Pilots Based at LFSB


Pilot ID
Pilot Name
Pilot Rank
No. of Flights
No. of Flying Hours
There are no pilots assigned to this hub!   Will you be the first?
Content